Maple Heights, Ohio
Current Conditions -  °F | °C
As of 10:53 AM on Tuesday 21 Oct 2014 (Local Time) from KBKL Reporting Station
Overcast Overcast  
Wind Chill: 52°   Ceiling: 2000
Heat Index: 52°   Visibility: 10mi
Dew Point: 47°   Wind: 23mph
Humidity: 83%   Direction: 340°NNW
Pressure: 29.92"   Gusts: 30mph
Location:  41.41°N, 81.56°W
Report Text: KBKL 211453Z 34020G26KT 10SM FEW013 BKN020 OVC027 11/08 A2992 RMK AO2 PK WND 33026/1447 RAB12E21B34E50 SLP134 P0000 60001 T01110083 51015
Loading
Personal Weather Stations






























Interactive Weather Map New forecast layout! Learn more

10-Day Weather Forecast

Advertisements
Track Severe Weather on mobile